Time,TemperatureF,DewpointF,PressureIn,WindDirection,WindDirectionDegrees,WindSpeedMPH,WindSpeedGustMPH,Humidity,HourlyPrecipIn,Conditions,Clouds,dailyrainin,SolarRadiationWatts/m^2,SoftwareType,DateUTC
2013-05-01 00:02:00,77.0,67.0,-100.00,North,8,7.0,11.0,71,0.00,,,0.44,0.000000,,2013-05-01 10:02:00,
2013-05-01 00:12:00,77.0,67.0,-100.00,North,8,7.0,11.0,71,0.00,,,0.44,0.000000,,2013-05-01 10:12:00,
2013-05-01 00:22:00,77.0,67.0,-100.00,North,8,7.0,11.0,71,0.00,,,0.44,0.000000,,2013-05-01 10:22:00,
2013-05-01 00:32:00,77.0,67.0,-100.00,North,8,7.0,11.0,71,0.00,,,0.44,0.000000,,2013-05-01 10:32:00,
2013-05-01 01:02:00,77.0,67.0,-100.00,North,9,6.0,14.0,71,0.00,,,0.44,0.000000,,2013-05-01 11:02:00,
2013-05-01 01:11:00,77.0,67.0,-100.00,North,9,6.0,14.0,71,0.00,,,0.44,0.000000,,2013-05-01 11:11:00,
2013-05-01 01:22:00,77.0,67.0,-100.00,North,9,6.0,14.0,71,0.00,,,0.44,0.000000,,2013-05-01 11:22:00,
2013-05-01 01:32:00,77.0,67.0,-100.00,North,9,6.0,14.0,71,0.00,,,0.44,0.000000,,2013-05-01 11:32:00,
2013-05-01 02:01:00,77.0,66.0,-100.00,North,7,8.0,13.0,68,0.00,,,0.44,1.000000,,2013-05-01 12:01:00,
2013-05-01 02:11:00,77.0,66.0,-100.00,North,7,8.0,13.0,68,0.00,,,0.44,1.000000,,2013-05-01 12:11:00,
2013-05-01 02:21:00,77.0,66.0,-100.00,North,7,8.0,13.0,68,0.00,,,0.44,1.000000,,2013-05-01 12:21:00,
2013-05-01 02:31:00,77.0,66.0,-100.00,North,7,8.0,13.0,68,0.00,,,0.44,1.000000,,2013-05-01 12:31:00,
2013-05-01 03:01:00,77.0,66.0,-100.00,North,7,6.0,12.0,69,0.00,,,-99.99,0.000000,,2013-05-01 13:01:00,
2013-05-01 03:11:00,77.0,66.0,-100.00,North,7,6.0,12.0,69,0.00,,,-99.99,0.000000,,2013-05-01 13:11:00,
2013-05-01 03:21:00,77.0,66.0,-100.00,North,7,6.0,12.0,69,0.00,,,-99.99,0.000000,,2013-05-01 13:21:00,
2013-05-01 03:31:00,77.0,66.0,-100.00,North,7,6.0,12.0,69,0.00,,,-99.99,0.000000,,2013-05-01 13:31:00,
2013-05-01 04:02:00,74.0,63.0,-100.00,North,8,7.0,14.0,69,0.00,,,0.44,1.000000,,2013-05-01 14:02:00,
2013-05-01 04:11:00,74.0,63.0,-100.00,North,8,7.0,14.0,69,0.00,,,0.44,1.000000,,2013-05-01 14:11:00,
2013-05-01 04:21:00,74.0,63.0,-100.00,North,8,7.0,14.0,69,0.00,,,0.44,1.000000,,2013-05-01 14:21:00,
2013-05-01 04:31:00,74.0,63.0,-100.00,North,8,7.0,14.0,69,0.00,,,0.44,1.000000,,2013-05-01 14:31:00,
2013-05-01 05:01:00,76.0,65.0,-100.00,North,9,7.0,12.0,68,0.00,,,0.44,1.000000,,2013-05-01 15:01:00,
2013-05-01 05:11:00,76.0,65.0,-100.00,North,9,7.0,12.0,68,0.00,,,0.44,1.000000,,2013-05-01 15:11:00,
2013-05-01 05:21:00,76.0,65.0,-100.00,North,9,7.0,12.0,68,0.00,,,0.44,1.000000,,2013-05-01 15:21:00,
2013-05-01 05:33:00,76.0,65.0,-100.00,North,9,7.0,12.0,68,0.00,,,0.44,1.000000,,2013-05-01 15:33:00,
2013-05-01 06:03:00,76.0,64.0,-100.00,North,8,8.0,17.0,67,0.00,,,0.44,1.000000,,2013-05-01 16:03:00,
2013-05-01 06:12:00,76.0,64.0,-100.00,North,8,8.0,17.0,67,0.00,,,0.44,1.000000,,2013-05-01 16:12:00,
2013-05-01 06:22:00,76.0,64.0,-100.00,North,8,8.0,17.0,67,0.00,,,0.44,1.000000,,2013-05-01 16:22:00,
2013-05-01 06:31:00,76.0,64.0,-100.00,North,8,8.0,17.0,67,0.00,,,0.44,1.000000,,2013-05-01 16:31:00,
2013-05-01 07:02:00,77.0,64.0,-100.00,North,11,7.0,11.0,65,0.00,,,0.44,15.000000,,2013-05-01 17:02:00,
2013-05-01 07:12:00,77.0,64.0,-100.00,North,11,7.0,11.0,65,0.00,,,0.44,15.000000,,2013-05-01 17:12:00,
2013-05-01 07:21:00,77.0,64.0,-100.00,North,11,7.0,11.0,65,0.00,,,0.44,15.000000,,2013-05-01 17:21:00,
2013-05-01 07:31:00,77.0,64.0,-100.00,North,11,7.0,11.0,65,0.00,,,0.44,15.000000,,2013-05-01 17:31:00,
2013-05-01 08:01:00,79.0,67.0,-100.00,North,10,6.0,11.0,66,0.00,,,0.44,185.000000,,2013-05-01 18:01:00,
2013-05-01 08:11:00,79.0,67.0,-100.00,North,10,6.0,11.0,66,0.00,,,0.44,185.000000,,2013-05-01 18:11:00,
2013-05-01 08:22:00,79.0,67.0,-100.00,North,10,6.0,11.0,66,0.00,,,0.44,185.000000,,2013-05-01 18:22:00,
2013-05-01 08:32:00,79.0,67.0,-100.00,North,10,6.0,11.0,66,0.00,,,0.44,185.000000,,2013-05-01 18:32:00,
2013-05-01 09:02:00,84.0,68.0,-100.00,North,11,7.0,14.0,59,0.00,,,0.44,437.000000,,2013-05-01 19:02:00,
2013-05-01 09:11:00,84.0,68.0,-100.00,North,11,7.0,14.0,59,0.00,,,0.44,437.000000,,2013-05-01 19:11:00,
2013-05-01 09:22:00,84.0,68.0,-100.00,North,11,7.0,14.0,59,0.00,,,0.44,437.000000,,2013-05-01 19:22:00,
2013-05-01 09:32:00,84.0,68.0,-100.00,North,11,7.0,14.0,59,0.00,,,0.44,437.000000,,2013-05-01 19:32:00,
2013-05-01 10:01:00,85.0,68.0,-100.00,North,10,7.0,15.0,56,0.00,,,0.42,549.000000,,2013-05-01 20:01:00,
2013-05-01 10:11:00,85.0,68.0,-100.00,North,10,7.0,15.0,56,0.00,,,0.42,549.000000,,2013-05-01 20:11:00,
2013-05-01 10:21:00,85.0,68.0,-100.00,North,10,7.0,15.0,56,0.00,,,0.42,549.000000,,2013-05-01 20:21:00,
2013-05-01 10:31:00,85.0,68.0,-100.00,North,10,7.0,15.0,56,0.00,,,0.42,549.000000,,2013-05-01 20:31:00,
2013-05-01 11:01:00,90.0,65.0,-100.00,NNE,23,6.0,14.0,44,0.00,,,0.42,738.000000,,2013-05-01 21:01:00,
2013-05-01 11:11:00,90.0,65.0,-100.00,NNE,23,6.0,14.0,44,0.00,,,0.42,738.000000,,2013-05-01 21:11:00,
2013-05-01 11:21:00,90.0,65.0,-100.00,NNE,23,6.0,14.0,44,0.00,,,0.42,738.000000,,2013-05-01 21:21:00,
2013-05-01 11:32:00,90.0,65.0,-100.00,NNE,23,6.0,14.0,44,0.00,,,0.42,738.000000,,2013-05-01 21:32:00,
2013-05-01 12:03:00,90.0,66.0,-100.00,North,6,6.0,12.0,45,0.00,,,0.42,739.000000,,2013-05-01 22:03:00,
2013-05-01 12:12:00,90.0,66.0,-100.00,North,6,6.0,12.0,45,0.00,,,0.42,739.000000,,2013-05-01 22:12:00,
2013-05-01 12:22:00,90.0,66.0,-100.00,North,6,6.0,12.0,45,0.00,,,0.42,739.000000,,2013-05-01 22:22:00,
2013-05-01 12:32:00,90.0,66.0,-100.00,North,6,6.0,12.0,45,0.00,,,0.42,739.000000,,2013-05-01 22:32:00,
2013-05-01 13:02:00,90.0,64.0,-100.00,North,9,4.0,12.0,42,0.00,,,0.42,813.000000,,2013-05-01 23:02:00,
2013-05-01 13:11:00,90.0,64.0,-100.00,North,9,4.0,12.0,42,0.00,,,0.42,813.000000,,2013-05-01 23:11:00,
2013-05-01 13:21:00,90.0,64.0,-100.00,North,9,4.0,12.0,42,0.00,,,0.42,813.000000,,2013-05-01 23:21:00,
2013-05-01 13:32:00,90.0,64.0,-100.00,North,9,4.0,12.0,42,0.00,,,0.42,813.000000,,2013-05-01 23:32:00,
2013-05-01 14:01:00,89.0,61.0,-100.00,NNE,28,6.0,14.0,39,0.00,,,0.42,806.000000,,2013-05-02 00:01:00,
2013-05-01 14:11:00,89.0,61.0,-100.00,NNE,28,6.0,14.0,39,0.00,,,0.42,806.000000,,2013-05-02 00:11:00,
2013-05-01 14:21:00,89.0,61.0,-100.00,NNE,28,6.0,14.0,39,0.00,,,0.42,806.000000,,2013-05-02 00:21:00,
2013-05-01 14:31:00,89.0,61.0,-100.00,NNE,28,6.0,14.0,39,0.00,,,0.42,806.000000,,2013-05-02 00:31:00,
2013-05-01 15:01:00,89.0,65.0,-100.00,NE,46,7.0,14.0,46,0.00,,,0.42,603.000000,,2013-05-02 01:01:00,
2013-05-01 15:11:00,89.0,65.0,-100.00,NE,46,7.0,14.0,46,0.00,,,0.42,603.000000,,2013-05-02 01:11:00,
2013-05-01 15:21:00,89.0,65.0,-100.00,NE,46,7.0,14.0,46,0.00,,,0.42,603.000000,,2013-05-02 01:21:00,
2013-05-01 15:32:00,89.0,65.0,-100.00,NE,46,7.0,14.0,46,0.00,,,0.42,603.000000,,2013-05-02 01:32:00,
2013-05-01 16:01:00,87.0,61.0,-100.00,NE,36,6.0,15.0,42,0.00,,,0.42,620.000000,,2013-05-02 02:01:00,
2013-05-01 16:11:00,87.0,61.0,-100.00,NE,36,6.0,15.0,42,0.00,,,0.42,620.000000,,2013-05-02 02:11:00,
2013-05-01 16:21:00,87.0,61.0,-100.00,NE,36,6.0,15.0,42,0.00,,,0.42,620.000000,,2013-05-02 02:21:00,
2013-05-01 16:31:00,87.0,61.0,-100.00,NE,36,6.0,15.0,42,0.00,,,0.42,620.000000,,2013-05-02 02:31:00,
2013-05-01 17:01:00,84.0,63.0,-100.00,NE,42,7.0,14.0,50,0.00,,,0.30,513.000000,,2013-05-02 03:01:00,
2013-05-01 17:11:00,84.0,63.0,-100.00,NE,42,7.0,14.0,50,0.00,,,0.30,513.000000,,2013-05-02 03:11:00,
2013-05-01 17:22:00,84.0,63.0,-100.00,NE,42,7.0,14.0,50,0.00,,,0.30,513.000000,,2013-05-02 03:22:00,
2013-05-01 17:32:00,84.0,63.0,-100.00,NE,42,7.0,14.0,50,0.00,,,0.30,513.000000,,2013-05-02 03:32:00,
2013-05-01 18:03:00,80.0,62.0,-100.00,NNE,26,5.0,15.0,55,0.00,,,0.02,233.000000,,2013-05-02 04:03:00,
2013-05-01 18:12:00,80.0,62.0,-100.00,NNE,26,5.0,15.0,55,0.00,,,0.02,233.000000,,2013-05-02 04:12:00,
2013-05-01 18:22:00,80.0,62.0,-100.00,NNE,26,5.0,15.0,55,0.00,,,0.02,233.000000,,2013-05-02 04:22:00,
2013-05-01 18:33:00,80.0,62.0,-100.00,NNE,26,5.0,15.0,55,0.00,,,0.02,233.000000,,2013-05-02 04:33:00,
2013-05-01 19:02:00,77.0,64.0,-100.00,NNE,22,7.0,13.0,65,0.00,,,0.00,36.000000,,2013-05-02 05:02:00,
2013-05-01 19:12:00,77.0,64.0,-100.00,NNE,22,7.0,13.0,65,0.00,,,0.00,36.000000,,2013-05-02 05:12:00,
2013-05-01 19:22:00,77.0,64.0,-100.00,NNE,22,7.0,13.0,65,0.00,,,0.00,36.000000,,2013-05-02 05:22:00,
2013-05-01 19:32:00,77.0,64.0,-100.00,NNE,22,7.0,13.0,65,0.00,,,0.00,36.000000,,2013-05-02 05:32:00,
2013-05-01 20:01:00,77.0,64.0,-100.00,NNE,12,8.0,15.0,64,0.00,,,0.00,4.000000,,2013-05-02 06:01:00,
2013-05-01 20:12:00,77.0,64.0,-100.00,NNE,12,8.0,15.0,64,0.00,,,0.00,4.000000,,2013-05-02 06:12:00,
2013-05-01 20:21:00,77.0,64.0,-100.00,NNE,12,8.0,15.0,64,0.00,,,0.00,4.000000,,2013-05-02 06:21:00,
2013-05-01 20:31:00,77.0,64.0,-100.00,NNE,12,8.0,15.0,64,0.00,,,0.00,4.000000,,2013-05-02 06:31:00,
2013-05-01 21:01:00,75.0,63.0,-100.00,NNE,14,7.0,14.0,67,0.00,,,0.00,0.000000,,2013-05-02 07:01:00,
2013-05-01 21:11:00,75.0,63.0,-100.00,NNE,14,7.0,14.0,67,0.00,,,0.00,0.000000,,2013-05-02 07:11:00,
2013-05-01 21:21:00,75.0,63.0,-100.00,NNE,14,7.0,14.0,67,0.00,,,0.00,0.000000,,2013-05-02 07:21:00,
2013-05-01 21:31:00,75.0,63.0,-100.00,NNE,14,7.0,14.0,67,0.00,,,0.00,0.000000,,2013-05-02 07:31:00,
2013-05-01 22:02:00,78.0,68.0,-100.00,North,10,7.0,12.0,72,0.00,,,0.00,1.000000,,2013-05-02 08:02:00,
2013-05-01 22:11:00,78.0,68.0,-100.00,North,10,7.0,12.0,72,0.00,,,0.00,1.000000,,2013-05-02 08:11:00,
2013-05-01 22:21:00,78.0,68.0,-100.00,North,10,7.0,12.0,72,0.00,,,0.00,1.000000,,2013-05-02 08:21:00,
2013-05-01 22:32:00,78.0,68.0,-100.00,North,10,7.0,12.0,72,0.00,,,0.00,1.000000,,2013-05-02 08:32:00,
2013-05-01 23:02:00,79.0,69.0,-100.00,North,8,6.0,10.0,72,0.00,,,0.00,0.000000,,2013-05-02 09:02:00,
2013-05-01 23:11:00,79.0,69.0,-100.00,North,8,6.0,10.0,72,0.00,,,0.00,0.000000,,2013-05-02 09:11:00,
2013-05-01 23:21:00,79.0,69.0,-100.00,North,8,6.0,10.0,72,0.00,,,0.00,0.000000,,2013-05-02 09:21:00,
2013-05-01 23:32:00,79.0,69.0,-100.00,North,8,6.0,10.0,72,0.00,,,0.00,0.000000,,2013-05-02 09:32:00,